createdAt,value
2022-10-22T00:00:01.655Z,50.2
2022-10-22T00:05:01.472Z,50.7
2022-10-22T00:10:06.338Z,49.2
2022-10-22T00:15:01.495Z,49.6
2022-10-22T00:20:01.395Z,49.3
2022-10-22T00:25:01.395Z,48.5
2022-10-22T00:30:01.406Z,51.4
2022-10-22T00:35:01.763Z,51.9
2022-10-22T00:40:01.835Z,51.4
2022-10-22T00:45:01.380Z,51.8
2022-10-22T00:50:01.467Z,51.9
2022-10-22T00:55:01.497Z,48.6
2022-10-22T01:00:01.370Z,48.2
2022-10-22T01:05:01.488Z,48.3
2022-10-22T01:15:01.440Z,47.9
2022-10-22T01:30:01.150Z,49.0
2022-10-22T01:35:01.363Z,48.2
2022-10-22T01:40:00.960Z,55.7
2022-10-22T01:45:01.142Z,55.5
2022-10-22T01:50:01.016Z,55.2
2022-10-22T01:55:02.196Z,55.4
2022-10-22T02:00:00.947Z,56.4
2022-10-22T02:05:01.122Z,53.0
2022-10-22T02:10:01.015Z,52.5
2022-10-22T02:15:01.033Z,52.6
2022-10-22T02:20:01.331Z,53.6
2022-10-22T02:25:01.082Z,57.2
2022-10-22T02:30:01.154Z,57.9
2022-10-22T02:35:01.035Z,58.4
2022-10-22T02:40:00.959Z,58.7
2022-10-22T02:45:01.422Z,58.9
2022-10-22T02:50:01.827Z,55.4
2022-10-22T02:55:01.125Z,54.5
2022-10-22T03:00:00.981Z,54.1
2022-10-22T03:05:01.107Z,53.2
2022-10-22T03:10:01.142Z,59.4
2022-10-22T03:15:01.103Z,59.4
2022-10-22T03:20:00.961Z,59.4
2022-10-22T03:25:01.115Z,59.6
2022-10-22T03:30:01.011Z,59.9
2022-10-22T03:35:01.663Z,53.8
2022-10-22T03:40:00.950Z,54.8
2022-10-22T03:45:01.009Z,56.2
2022-10-22T03:50:01.305Z,56.2
2022-10-22T03:55:01.119Z,56.8
2022-10-22T04:00:01.013Z,55.9
2022-10-22T04:05:01.274Z,55.1
2022-10-22T04:10:01.053Z,54.2
2022-10-22T04:15:01.707Z,54.6
2022-10-22T04:20:01.081Z,54.6
2022-10-22T04:25:01.097Z,55.4
2022-10-22T04:30:01.070Z,54.8
2022-10-22T04:35:01.141Z,54.2
2022-10-22T04:40:00.983Z,54.2
2022-10-22T04:45:01.365Z,53.8
2022-10-22T04:50:01.047Z,53.3
2022-10-22T04:55:01.098Z,54.4
2022-10-22T05:00:00.994Z,54.9
2022-10-22T05:05:01.062Z,55.4
2022-10-22T05:10:01.184Z,55.8
2022-10-22T05:15:01.155Z,56.5
2022-10-22T05:20:01.013Z,56.6
2022-10-22T05:25:01.186Z,56.5
2022-10-22T05:30:01.062Z,55.7
2022-10-22T05:35:01.232Z,55.2
2022-10-22T05:45:06.333Z,53.9
2022-10-22T05:50:01.708Z,58.5
2022-10-22T05:55:02.327Z,58.4
2022-10-22T06:00:00.963Z,58.3
2022-10-22T06:05:01.234Z,58.3
2022-10-22T06:10:01.045Z,58.5
2022-10-22T06:15:01.735Z,53.7
2022-10-22T06:20:01.158Z,54.1
2022-10-22T06:25:01.312Z,54.4
2022-10-22T06:30:01.000Z,55.0
2022-10-22T06:35:01.081Z,54.8
2022-10-22T06:40:01.075Z,55.1
2022-10-22T06:50:01.504Z,54.6
2022-10-22T06:55:01.160Z,54.4
2022-10-22T07:00:01.395Z,54.2
2022-10-22T07:05:01.120Z,53.8
2022-10-22T07:10:01.093Z,54.0
2022-10-22T07:15:01.155Z,54.4
2022-10-22T07:20:00.998Z,54.6
2022-10-22T07:25:07.668Z,54.8
2022-10-22T07:30:01.123Z,54.6
2022-10-22T07:35:01.142Z,54.8
2022-10-22T07:40:04.379Z,54.3
2022-10-22T07:45:01.128Z,55.2
2022-10-22T07:50:01.049Z,55.6
2022-10-22T07:55:01.166Z,55.7
2022-10-22T08:00:01.001Z,56.0
2022-10-22T08:05:01.199Z,55.8
2022-10-22T08:10:01.059Z,54.6
2022-10-22T08:15:01.099Z,54.8
2022-10-22T08:20:01.007Z,54.6
2022-10-22T08:25:01.142Z,53.9
2022-10-22T08:30:01.010Z,57.4
2022-10-22T08:35:02.179Z,57.1
2022-10-22T08:40:01.331Z,56.6
2022-10-22T08:45:01.129Z,56.8
2022-10-22T09:00:01.630Z,55.0
2022-10-22T09:05:02.015Z,54.6
2022-10-22T09:20:01.276Z,55.2
2022-10-22T09:40:01.397Z,54.6
2022-10-22T09:45:01.296Z,54.3
2022-10-22T09:50:07.269Z,54.4
2022-10-22T10:10:01.830Z,56.6
2022-10-22T10:15:02.727Z,55.7
2022-10-22T10:20:09.430Z,55.8
2022-10-22T10:40:01.307Z,54.4
2022-10-22T11:00:01.572Z,50.4
2022-10-22T11:05:01.599Z,51.3
2022-10-22T11:20:01.900Z,51.0
2022-10-22T11:40:01.320Z,49.0
2022-10-22T12:00:01.619Z,48.8
2022-10-22T12:05:02.096Z,49.4
2022-10-22T12:20:03.157Z,51.0
2022-10-22T12:25:01.904Z,51.4
2022-10-22T12:35:01.964Z,50.5
2022-10-22T12:40:01.839Z,50.3
2022-10-22T12:45:01.879Z,49.6
2022-10-22T12:50:01.738Z,49.1
2022-10-22T12:55:01.799Z,49.3
2022-10-22T13:00:02.194Z,49.1
2022-10-22T13:05:01.958Z,48.7
2022-10-22T13:10:01.833Z,48.6
2022-10-22T13:30:01.694Z,47.0
2022-10-22T13:35:01.546Z,46.4
2022-10-22T13:40:01.750Z,45.6
2022-10-22T13:45:01.545Z,45.3
2022-10-22T13:50:01.575Z,45.6
2022-10-22T13:55:01.597Z,44.8
2022-10-22T14:05:06.500Z,44.0
2022-10-22T14:15:01.581Z,43.6
2022-10-22T14:20:01.643Z,43.9
2022-10-22T14:25:01.896Z,44.6
2022-10-22T14:30:01.503Z,44.7
2022-10-22T14:35:01.612Z,47.6
2022-10-22T14:40:01.990Z,47.9
2022-10-22T14:45:01.654Z,49.3
2022-10-22T14:50:01.407Z,50.3
2022-10-22T15:05:01.754Z,49.0
2022-10-22T15:10:01.453Z,47.8
2022-10-22T15:20:01.391Z,45.2
2022-10-22T15:25:01.531Z,45.6
2022-10-22T15:35:01.496Z,47.3
2022-10-22T15:40:01.374Z,47.4
2022-10-22T15:50:01.492Z,48.6
2022-10-22T15:55:01.633Z,48.5
2022-10-22T16:00:01.367Z,47.6
2022-10-22T16:05:01.564Z,48.3
2022-10-22T16:10:01.410Z,46.8
2022-10-22T16:20:06.554Z,49.4
2022-10-22T16:25:01.533Z,48.4
2022-10-22T16:30:01.335Z,49.3
2022-10-22T16:35:01.740Z,49.0
2022-10-22T16:40:08.106Z,47.9
2022-10-22T16:45:01.687Z,47.1
2022-10-22T17:05:06.666Z,48.4
2022-10-22T17:10:02.463Z,49.4
2022-10-22T17:15:08.014Z,52.6
2022-10-22T17:20:02.724Z,52.4
2022-10-22T17:30:03.773Z,51.6
2022-10-22T17:35:01.451Z,50.8
2022-10-22T17:40:01.371Z,47.6
2022-10-22T17:45:01.461Z,47.7
2022-10-22T17:55:01.563Z,47.3
2022-10-22T18:00:01.408Z,46.5
2022-10-22T18:05:01.355Z,46.9
2022-10-22T18:10:01.482Z,46.5
2022-10-22T18:15:01.478Z,46.1
2022-10-22T18:20:06.335Z,46.1
2022-10-22T18:25:01.449Z,46.9
2022-10-22T18:45:01.423Z,47.6
2022-10-22T18:50:01.602Z,48.0
2022-10-22T18:55:01.790Z,48.6
2022-10-22T19:00:01.341Z,48.1
2022-10-22T19:05:01.458Z,47.8
2022-10-22T19:10:01.649Z,48.0
2022-10-22T19:15:06.926Z,48.0
2022-10-22T19:25:01.511Z,48.2
2022-10-22T19:30:02.416Z,48.3
2022-10-22T19:35:02.707Z,48.4
2022-10-22T19:40:05.987Z,48.7
2022-10-22T19:45:06.970Z,48.4
2022-10-22T19:55:06.806Z,49.7
2022-10-22T20:00:11.314Z,48.6
2022-10-22T20:05:01.381Z,47.3
2022-10-22T20:10:01.665Z,46.2
2022-10-22T20:15:02.479Z,45.3
2022-10-22T20:20:06.368Z,43.5
2022-10-22T20:30:02.469Z,44.0
2022-10-22T20:35:01.322Z,44.2
2022-10-22T20:45:01.501Z,45.0
2022-10-22T20:50:06.596Z,44.8
2022-10-22T20:55:02.556Z,44.2
2022-10-22T21:00:01.453Z,44.8
2022-10-22T21:10:01.420Z,44.8
2022-10-22T21:15:01.890Z,45.0
2022-10-22T21:20:01.400Z,45.6
2022-10-22T21:25:02.440Z,45.4
2022-10-22T21:35:02.590Z,45.9
2022-10-22T21:40:01.696Z,46.4
2022-10-22T21:45:09.180Z,46.9
2022-10-22T21:50:06.431Z,47.9
2022-10-22T22:05:06.485Z,48.0
2022-10-22T22:10:02.320Z,47.8
2022-10-22T22:15:06.400Z,48.0
2022-10-22T22:20:01.394Z,47.6
2022-10-22T22:25:02.296Z,48.3
2022-10-22T22:30:01.292Z,48.6
2022-10-22T22:35:02.384Z,52.2
2022-10-22T22:40:02.468Z,51.5
2022-10-22T22:45:01.516Z,51.8
2022-10-22T22:50:01.488Z,52.2
2022-10-22T22:55:01.494Z,52.2
2022-10-22T23:00:01.656Z,50.0
2022-10-22T23:05:01.482Z,51.2
2022-10-22T23:10:02.248Z,52.4
2022-10-22T23:15:01.526Z,52.7
2022-10-22T23:20:06.351Z,53.2
2022-10-22T23:25:01.440Z,54.2
2022-10-22T23:30:01.304Z,55.8
2022-10-22T23:35:01.812Z,54.6
2022-10-22T23:40:01.493Z,54.1
2022-10-22T23:45:01.368Z,54.1
2022-10-22T23:50:01.462Z,53.1
2022-10-22T23:55:02.461Z,51.8
